sensor_id;sensor_type;location;lat;lon;timestamp;P1;durP1;ratioP1;P2;durP2;ratioP2
77109;SDS011;66062;52.464;16.922;2023-05-01T00:00:53;8.40;;;3.75;;
77109;SDS011;66062;52.464;16.922;2023-05-01T00:03:19;7.72;;;4.25;;
77109;SDS011;66062;52.464;16.922;2023-05-01T00:05:45;10.13;;;4.10;;
77109;SDS011;66062;52.464;16.922;2023-05-01T00:08:10;9.57;;;4.00;;
77109;SDS011;66062;52.464;16.922;2023-05-01T00:10:36;13.32;;;4.30;;
77109;SDS011;66062;52.464;16.922;2023-05-01T00:13:02;11.43;;;3.97;;
77109;SDS011;66062;52.464;16.922;2023-05-01T00:15:28;8.63;;;4.30;;
77109;SDS011;66062;52.464;16.922;2023-05-01T00:17:54;11.85;;;3.83;;
77109;SDS011;66062;52.464;16.922;2023-05-01T00:20:19;7.32;;;3.42;;
77109;SDS011;66062;52.464;16.922;2023-05-01T00:22:45;8.57;;;3.83;;
77109;SDS011;66062;52.464;16.922;2023-05-01T00:25:11;12.27;;;3.58;;
77109;SDS011;66062;52.464;16.922;2023-05-01T00:27:37;11.32;;;4.25;;
77109;SDS011;66062;52.464;16.922;2023-05-01T00:30:02;10.02;;;3.90;;
77109;SDS011;66062;52.464;16.922;2023-05-01T00:32:28;7.05;;;3.75;;
77109;SDS011;66062;52.464;16.922;2023-05-01T00:34:54;6.82;;;3.22;;
77109;SDS011;66062;52.464;16.922;2023-05-01T00:37:21;9.02;;;3.85;;
77109;SDS011;66062;52.464;16.922;2023-05-01T00:39:47;10.35;;;4.22;;
77109;SDS011;66062;52.464;16.922;2023-05-01T00:42:13;14.43;;;4.05;;
77109;SDS011;66062;52.464;16.922;2023-05-01T00:44:38;10.02;;;3.53;;
77109;SDS011;66062;52.464;16.922;2023-05-01T00:47:04;8.15;;;3.15;;
77109;SDS011;66062;52.464;16.922;2023-05-01T00:49:29;8.88;;;3.72;;
77109;SDS011;66062;52.464;16.922;2023-05-01T00:51:55;10.02;;;4.38;;
77109;SDS011;66062;52.464;16.922;2023-05-01T00:54:22;10.55;;;4.15;;
77109;SDS011;66062;52.464;16.922;2023-05-01T00:56:50;9.77;;;3.83;;
77109;SDS011;66062;52.464;16.922;2023-05-01T00:59:16;8.90;;;3.55;;
77109;SDS011;66062;52.464;16.922;2023-05-01T01:01:42;9.05;;;3.63;;
77109;SDS011;66062;52.464;16.922;2023-05-01T01:04:07;10.25;;;3.78;;
77109;SDS011;66062;52.464;16.922;2023-05-01T01:06:34;9.98;;;4.43;;
77109;SDS011;66062;52.464;16.922;2023-05-01T01:09:36;10.20;;;3.58;;
77109;SDS011;66062;52.464;16.922;2023-05-01T01:12:18;9.07;;;3.50;;
77109;SDS011;66062;52.464;16.922;2023-05-01T01:15:01;12.10;;;4.43;;
77109;SDS011;66062;52.464;16.922;2023-05-01T01:17:56;11.15;;;3.97;;
77109;SDS011;66062;52.464;16.922;2023-05-01T01:34:58;9.88;;;3.90;;
77109;SDS011;66062;52.464;16.922;2023-05-01T01:37:28;9.05;;;4.13;;
77109;SDS011;66062;52.464;16.922;2023-05-01T01:42:42;11.52;;;4.00;;
77109;SDS011;66062;52.464;16.922;2023-05-01T01:45:22;9.80;;;4.28;;
77109;SDS011;66062;52.464;16.922;2023-05-01T01:47:54;12.45;;;4.65;;
77109;SDS011;66062;52.464;16.922;2023-05-01T01:50:22;12.23;;;3.97;;
77109;SDS011;66062;52.464;16.922;2023-05-01T01:52:50;10.77;;;3.85;;
77109;SDS011;66062;52.464;16.922;2023-05-01T01:55:19;8.52;;;3.95;;
77109;SDS011;66062;52.464;16.922;2023-05-01T01:57:49;10.50;;;3.97;;
77109;SDS011;66062;52.464;16.922;2023-05-01T02:00:16;8.23;;;3.47;;
77109;SDS011;66062;52.464;16.922;2023-05-01T02:02:43;9.98;;;3.53;;
77109;SDS011;66062;52.464;16.922;2023-05-01T02:05:10;17.67;;;7.80;;
77109;SDS011;66062;52.464;16.922;2023-05-01T02:07:38;36.42;;;16.52;;
77109;SDS011;66062;52.464;16.922;2023-05-01T02:10:06;14.45;;;6.20;;
77109;SDS011;66062;52.464;16.922;2023-05-01T02:12:33;9.35;;;3.70;;
77109;SDS011;66062;52.464;16.922;2023-05-01T02:15:00;9.85;;;3.83;;
77109;SDS011;66062;52.464;16.922;2023-05-01T02:17:27;9.75;;;3.47;;
77109;SDS011;66062;52.464;16.922;2023-05-01T02:19:55;9.23;;;3.75;;
77109;SDS011;66062;52.464;16.922;2023-05-01T02:22:21;9.65;;;3.90;;
77109;SDS011;66062;52.464;16.922;2023-05-01T02:24:49;13.48;;;4.50;;
77109;SDS011;66062;52.464;16.922;2023-05-01T02:27:22;10.20;;;3.97;;
77109;SDS011;66062;52.464;16.922;2023-05-01T02:29:51;8.43;;;3.47;;
77109;SDS011;66062;52.464;16.922;2023-05-01T02:32:17;9.50;;;4.05;;
77109;SDS011;66062;52.464;16.922;2023-05-01T02:34:43;9.90;;;3.75;;
77109;SDS011;66062;52.464;16.922;2023-05-01T02:37:10;8.93;;;3.83;;
77109;SDS011;66062;52.464;16.922;2023-05-01T02:39:36;9.18;;;3.40;;
77109;SDS011;66062;52.464;16.922;2023-05-01T02:42:02;9.50;;;4.03;;
77109;SDS011;66062;52.464;16.922;2023-05-01T02:44:31;11.43;;;4.03;;
77109;SDS011;66062;52.464;16.922;2023-05-01T02:47:03;9.63;;;4.00;;
77109;SDS011;66062;52.464;16.922;2023-05-01T02:49:31;9.70;;;4.03;;
77109;SDS011;66062;52.464;16.922;2023-05-01T02:51:58;8.82;;;4.25;;
77109;SDS011;66062;52.464;16.922;2023-05-01T02:54:24;11.60;;;3.88;;
77109;SDS011;66062;52.464;16.922;2023-05-01T02:56:51;9.18;;;4.43;;
77109;SDS011;66062;52.464;16.922;2023-05-01T02:59:17;11.88;;;4.78;;
77109;SDS011;66062;52.464;16.922;2023-05-01T03:01:42;8.45;;;4.15;;
77109;SDS011;66062;52.464;16.922;2023-05-01T03:04:07;14.05;;;5.53;;
77109;SDS011;66062;52.464;16.922;2023-05-01T03:06:33;13.90;;;5.88;;
77109;SDS011;66062;52.464;16.922;2023-05-01T03:08:58;12.50;;;5.47;;
77109;SDS011;66062;52.464;16.922;2023-05-01T03:11:24;13.73;;;5.25;;
77109;SDS011;66062;52.464;16.922;2023-05-01T03:13:50;10.88;;;5.10;;
77109;SDS011;66062;52.464;16.922;2023-05-01T03:16:16;15.10;;;5.15;;
77109;SDS011;66062;52.464;16.922;2023-05-01T03:18:41;13.85;;;5.10;;
77109;SDS011;66062;52.464;16.922;2023-05-01T03:21:06;13.35;;;6.10;;
77109;SDS011;66062;52.464;16.922;2023-05-01T03:23:32;11.75;;;5.43;;
77109;SDS011;66062;52.464;16.922;2023-05-01T03:25:57;11.48;;;4.63;;
77109;SDS011;66062;52.464;16.922;2023-05-01T03:28:23;11.73;;;4.85;;
77109;SDS011;66062;52.464;16.922;2023-05-01T03:30:49;13.23;;;6.13;;
77109;SDS011;66062;52.464;16.922;2023-05-01T03:33:15;13.05;;;5.25;;
77109;SDS011;66062;52.464;16.922;2023-05-01T03:35:41;14.52;;;5.35;;
77109;SDS011;66062;52.464;16.922;2023-05-01T03:38:06;12.90;;;4.65;;
77109;SDS011;66062;52.464;16.922;2023-05-01T03:40:32;10.20;;;4.28;;
77109;SDS011;66062;52.464;16.922;2023-05-01T03:42:57;9.95;;;4.43;;
77109;SDS011;66062;52.464;16.922;2023-05-01T03:45:22;9.80;;;4.60;;
77109;SDS011;66062;52.464;16.922;2023-05-01T03:47:48;9.52;;;4.88;;
77109;SDS011;66062;52.464;16.922;2023-05-01T03:50:14;10.88;;;4.47;;
77109;SDS011;66062;52.464;16.922;2023-05-01T03:52:40;9.13;;;4.03;;
77109;SDS011;66062;52.464;16.922;2023-05-01T03:55:05;10.18;;;4.60;;
77109;SDS011;66062;52.464;16.922;2023-05-01T03:57:32;10.05;;;4.35;;
77109;SDS011;66062;52.464;16.922;2023-05-01T03:59:57;8.18;;;4.63;;
77109;SDS011;66062;52.464;16.922;2023-05-01T04:02:23;9.45;;;3.92;;
77109;SDS011;66062;52.464;16.922;2023-05-01T04:04:49;7.65;;;3.70;;
77109;SDS011;66062;52.464;16.922;2023-05-01T04:07:14;11.65;;;4.22;;
77109;SDS011;66062;52.464;16.922;2023-05-01T04:09:40;25.13;;;10.90;;
77109;SDS011;66062;52.464;16.922;2023-05-01T04:12:05;26.10;;;11.57;;
77109;SDS011;66062;52.464;16.922;2023-05-01T04:14:31;16.75;;;6.32;;
77109;SDS011;66062;52.464;16.922;2023-05-01T04:16:56;10.23;;;4.38;;
77109;SDS011;66062;52.464;16.922;2023-05-01T04:19:22;9.43;;;4.65;;
77109;SDS011;66062;52.464;16.922;2023-05-01T04:21:47;9.88;;;4.13;;
77109;SDS011;66062;52.464;16.922;2023-05-01T04:24:13;9.65;;;4.25;;
77109;SDS011;66062;52.464;16.922;2023-05-01T04:26:38;9.63;;;4.57;;
77109;SDS011;66062;52.464;16.922;2023-05-01T04:29:04;10.82;;;4.00;;
77109;SDS011;66062;52.464;16.922;2023-05-01T04:31:29;9.70;;;4.35;;
77109;SDS011;66062;52.464;16.922;2023-05-01T04:33:55;19.75;;;10.20;;
77109;SDS011;66062;52.464;16.922;2023-05-01T04:36:20;14.60;;;5.78;;
77109;SDS011;66062;52.464;16.922;2023-05-01T04:38:46;11.20;;;4.38;;
77109;SDS011;66062;52.464;16.922;2023-05-01T04:41:12;11.55;;;5.40;;
77109;SDS011;66062;52.464;16.922;2023-05-01T04:43:38;13.65;;;5.10;;
77109;SDS011;66062;52.464;16.922;2023-05-01T04:46:03;15.68;;;6.63;;
77109;SDS011;66062;52.464;16.922;2023-05-01T04:48:29;12.73;;;4.00;;
77109;SDS011;66062;52.464;16.922;2023-05-01T04:50:54;7.60;;;4.85;;
77109;SDS011;66062;52.464;16.922;2023-05-01T04:53:20;14.98;;;6.47;;
77109;SDS011;66062;52.464;16.922;2023-05-01T04:55:45;10.45;;;5.20;;
77109;SDS011;66062;52.464;16.922;2023-05-01T04:58:10;15.55;;;4.88;;
77109;SDS011;66062;52.464;16.922;2023-05-01T05:00:36;11.77;;;4.50;;
77109;SDS011;66062;52.464;16.922;2023-05-01T05:03:01;9.85;;;4.60;;
77109;SDS011;66062;52.464;16.922;2023-05-01T05:05:27;15.38;;;4.32;;
77109;SDS011;66062;52.464;16.922;2023-05-01T05:07:52;9.00;;;4.28;;
77109;SDS011;66062;52.464;16.922;2023-05-01T05:10:21;15.23;;;5.20;;
77109;SDS011;66062;52.464;16.922;2023-05-01T05:12:46;10.98;;;5.38;;
77109;SDS011;66062;52.464;16.922;2023-05-01T05:15:12;12.15;;;5.20;;
77109;SDS011;66062;52.464;16.922;2023-05-01T05:17:37;12.02;;;6.25;;
77109;SDS011;66062;52.464;16.922;2023-05-01T05:20:03;20.42;;;9.77;;
77109;SDS011;66062;52.464;16.922;2023-05-01T05:22:29;14.27;;;5.80;;
77109;SDS011;66062;52.464;16.922;2023-05-01T05:24:54;13.02;;;5.78;;
77109;SDS011;66062;52.464;16.922;2023-05-01T05:27:23;12.52;;;5.47;;
77109;SDS011;66062;52.464;16.922;2023-05-01T05:29:50;11.82;;;5.70;;
77109;SDS011;66062;52.464;16.922;2023-05-01T05:32:15;15.15;;;5.68;;
77109;SDS011;66062;52.464;16.922;2023-05-01T05:34:41;12.50;;;6.53;;
77109;SDS011;66062;52.464;16.922;2023-05-01T05:37:06;14.45;;;6.32;;
77109;SDS011;66062;52.464;16.922;2023-05-01T05:39:32;14.10;;;6.55;;
77109;SDS011;66062;52.464;16.922;2023-05-01T05:41:58;16.08;;;5.78;;
77109;SDS011;66062;52.464;16.922;2023-05-01T05:44:23;14.38;;;6.07;;
77109;SDS011;66062;52.464;16.922;2023-05-01T05:46:49;12.43;;;5.53;;
77109;SDS011;66062;52.464;16.922;2023-05-01T05:49:14;12.52;;;5.53;;
77109;SDS011;66062;52.464;16.922;2023-05-01T05:51:40;16.08;;;5.93;;
77109;SDS011;66062;52.464;16.922;2023-05-01T05:54:05;11.00;;;5.18;;
77109;SDS011;66062;52.464;16.922;2023-05-01T05:56:31;12.95;;;5.72;;
77109;SDS011;66062;52.464;16.922;2023-05-01T05:58:56;12.40;;;5.63;;
77109;SDS011;66062;52.464;16.922;2023-05-01T06:01:22;18.00;;;6.28;;
77109;SDS011;66062;52.464;16.922;2023-05-01T06:03:47;11.13;;;5.43;;
77109;SDS011;66062;52.464;16.922;2023-05-01T06:06:13;13.82;;;5.25;;
77109;SDS011;66062;52.464;16.922;2023-05-01T06:08:39;13.63;;;5.65;;
77109;SDS011;66062;52.464;16.922;2023-05-01T06:11:04;11.32;;;5.03;;
77109;SDS011;66062;52.464;16.922;2023-05-01T06:13:31;9.35;;;4.30;;
77109;SDS011;66062;52.464;16.922;2023-05-01T06:15:56;12.68;;;4.45;;
77109;SDS011;66062;52.464;16.922;2023-05-01T06:18:22;9.63;;;4.30;;
77109;SDS011;66062;52.464;16.922;2023-05-01T06:20:50;9.85;;;4.47;;
77109;SDS011;66062;52.464;16.922;2023-05-01T06:23:16;10.48;;;4.07;;
77109;SDS011;66062;52.464;16.922;2023-05-01T06:25:42;5.97;;;3.03;;
77109;SDS011;66062;52.464;16.922;2023-05-01T06:28:08;8.23;;;3.95;;
77109;SDS011;66062;52.464;16.922;2023-05-01T06:30:33;7.88;;;3.70;;
77109;SDS011;66062;52.464;16.922;2023-05-01T06:32:59;7.72;;;3.40;;
77109;SDS011;66062;52.464;16.922;2023-05-01T06:35:24;10.55;;;4.78;;
77109;SDS011;66062;52.464;16.922;2023-05-01T06:37:50;9.25;;;3.80;;
77109;SDS011;66062;52.464;16.922;2023-05-01T06:40:15;8.50;;;3.65;;
77109;SDS011;66062;52.464;16.922;2023-05-01T06:42:40;8.88;;;4.35;;
77109;SDS011;66062;52.464;16.922;2023-05-01T06:45:07;12.48;;;3.70;;
77109;SDS011;66062;52.464;16.922;2023-05-01T06:47:32;6.95;;;3.20;;
77109;SDS011;66062;52.464;16.922;2023-05-01T06:49:58;7.30;;;3.28;;
77109;SDS011;66062;52.464;16.922;2023-05-01T06:52:23;6.97;;;2.83;;
77109;SDS011;66062;52.464;16.922;2023-05-01T06:54:49;9.95;;;4.07;;
77109;SDS011;66062;52.464;16.922;2023-05-01T06:57:14;7.93;;;2.60;;
77109;SDS011;66062;52.464;16.922;2023-05-01T06:59:40;9.10;;;3.20;;
77109;SDS011;66062;52.464;16.922;2023-05-01T07:02:05;7.32;;;2.30;;
77109;SDS011;66062;52.464;16.922;2023-05-01T07:04:31;6.72;;;2.70;;
77109;SDS011;66062;52.464;16.922;2023-05-01T07:06:56;5.75;;;2.20;;
77109;SDS011;66062;52.464;16.922;2023-05-01T07:09:22;9.93;;;2.95;;
77109;SDS011;66062;52.464;16.922;2023-05-01T07:11:47;7.95;;;2.45;;
77109;SDS011;66062;52.464;16.922;2023-05-01T07:14:13;5.95;;;2.55;;
77109;SDS011;66062;52.464;16.922;2023-05-01T07:16:39;7.38;;;2.40;;
77109;SDS011;66062;52.464;16.922;2023-05-01T07:19:05;5.60;;;1.85;;
77109;SDS011;66062;52.464;16.922;2023-05-01T07:21:30;5.97;;;2.05;;
77109;SDS011;66062;52.464;16.922;2023-05-01T07:23:56;7.35;;;2.13;;
77109;SDS011;66062;52.464;16.922;2023-05-01T07:26:21;9.25;;;3.38;;
77109;SDS011;66062;52.464;16.922;2023-05-01T07:28:47;5.95;;;1.88;;
77109;SDS011;66062;52.464;16.922;2023-05-01T07:31:13;5.80;;;1.98;;
77109;SDS011;66062;52.464;16.922;2023-05-01T07:33:38;7.32;;;1.90;;
77109;SDS011;66062;52.464;16.922;2023-05-01T07:36:03;4.63;;;2.10;;
77109;SDS011;66062;52.464;16.922;2023-05-01T07:38:29;4.93;;;1.95;;
77109;SDS011;66062;52.464;16.922;2023-05-01T07:40:55;5.32;;;2.35;;
77109;SDS011;66062;52.464;16.922;2023-05-01T07:43:21;5.13;;;2.20;;
77109;SDS011;66062;52.464;16.922;2023-05-01T07:45:59;7.63;;;2.00;;
77109;SDS011;66062;52.464;16.922;2023-05-01T07:48:26;5.57;;;2.22;;
77109;SDS011;66062;52.464;16.922;2023-05-01T07:53:18;5.75;;;2.22;;
77109;SDS011;66062;52.464;16.922;2023-05-01T07:55:43;7.57;;;2.30;;
77109;SDS011;66062;52.464;16.922;2023-05-01T07:58:09;4.47;;;2.03;;
77109;SDS011;66062;52.464;16.922;2023-05-01T08:00:34;7.97;;;2.20;;
77109;SDS011;66062;52.464;16.922;2023-05-01T08:03:00;6.95;;;2.90;;
77109;SDS011;66062;52.464;16.922;2023-05-01T08:05:26;7.03;;;2.40;;
77109;SDS011;66062;52.464;16.922;2023-05-01T08:07:51;7.95;;;2.92;;
77109;SDS011;66062;52.464;16.922;2023-05-01T08:10:17;6.00;;;2.42;;
77109;SDS011;66062;52.464;16.922;2023-05-01T08:12:42;13.07;;;3.58;;
77109;SDS011;66062;52.464;16.922;2023-05-01T08:15:08;8.52;;;2.70;;
77109;SDS011;66062;52.464;16.922;2023-05-01T08:17:35;6.15;;;2.65;;
77109;SDS011;66062;52.464;16.922;2023-05-01T08:20:01;9.38;;;3.85;;
77109;SDS011;66062;52.464;16.922;2023-05-01T08:22:27;6.13;;;2.85;;
77109;SDS011;66062;52.464;16.922;2023-05-01T08:24:53;6.45;;;2.55;;
77109;SDS011;66062;52.464;16.922;2023-05-01T08:27:19;8.63;;;3.10;;
77109;SDS011;66062;52.464;16.922;2023-05-01T08:29:44;6.55;;;3.10;;
77109;SDS011;66062;52.464;16.922;2023-05-01T08:32:09;8.88;;;2.97;;
77109;SDS011;66062;52.464;16.922;2023-05-01T08:34:35;6.07;;;2.25;;
77109;SDS011;66062;52.464;16.922;2023-05-01T08:37:00;7.50;;;3.20;;
77109;SDS011;66062;52.464;16.922;2023-05-01T08:39:26;8.60;;;3.53;;
77109;SDS011;66062;52.464;16.922;2023-05-01T08:41:51;8.00;;;2.92;;
77109;SDS011;66062;52.464;16.922;2023-05-01T08:44:18;9.15;;;3.38;;
77109;SDS011;66062;52.464;16.922;2023-05-01T08:49:22;6.35;;;3.10;;
77109;SDS011;66062;52.464;16.922;2023-05-01T08:51:49;8.07;;;2.42;;
77109;SDS011;66062;52.464;16.922;2023-05-01T08:54:17;4.57;;;2.00;;
77109;SDS011;66062;52.464;16.922;2023-05-01T08:56:44;6.78;;;2.38;;
77109;SDS011;66062;52.464;16.922;2023-05-01T08:59:11;6.85;;;2.22;;
77109;SDS011;66062;52.464;16.922;2023-05-01T09:01:38;7.97;;;3.00;;
77109;SDS011;66062;52.464;16.922;2023-05-01T09:04:05;8.85;;;2.15;;
77109;SDS011;66062;52.464;16.922;2023-05-01T09:06:31;7.45;;;3.00;;
77109;SDS011;66062;52.464;16.922;2023-05-01T09:08:57;7.53;;;2.83;;
77109;SDS011;66062;52.464;16.922;2023-05-01T09:11:24;5.57;;;2.63;;
77109;SDS011;66062;52.464;16.922;2023-05-01T09:13:50;8.95;;;2.83;;
77109;SDS011;66062;52.464;16.922;2023-05-01T09:16:16;4.00;;;2.00;;
77109;SDS011;66062;52.464;16.922;2023-05-01T09:18:42;7.55;;;2.70;;
77109;SDS011;66062;52.464;16.922;2023-05-01T09:21:09;7.38;;;2.67;;
77109;SDS011;66062;52.464;16.922;2023-05-01T09:23:34;5.95;;;2.13;;
77109;SDS011;66062;52.464;16.922;2023-05-01T09:26:04;6.97;;;2.88;;
77109;SDS011;66062;52.464;16.922;2023-05-01T09:28:41;6.78;;;2.42;;
77109;SDS011;66062;52.464;16.922;2023-05-01T09:31:19;7.00;;;2.40;;
77109;SDS011;66062;52.464;16.922;2023-05-01T09:34:05;4.82;;;2.00;;
77109;SDS011;66062;52.464;16.922;2023-05-01T09:36:32;5.72;;;2.28;;
77109;SDS011;66062;52.464;16.922;2023-05-01T09:41:28;5.75;;;2.20;;
77109;SDS011;66062;52.464;16.922;2023-05-01T09:43:57;8.18;;;2.65;;
77109;SDS011;66062;52.464;16.922;2023-05-01T09:46:23;6.55;;;2.28;;
77109;SDS011;66062;52.464;16.922;2023-05-01T09:49:00;8.15;;;3.03;;
77109;SDS011;66062;52.464;16.922;2023-05-01T09:51:30;5.60;;;2.83;;
77109;SDS011;66062;52.464;16.922;2023-05-01T09:53:58;6.38;;;2.35;;
77109;SDS011;66062;52.464;16.922;2023-05-01T09:56:26;6.85;;;2.30;;
77109;SDS011;66062;52.464;16.922;2023-05-01T09:58:54;6.10;;;2.05;;
77109;SDS011;66062;52.464;16.922;2023-05-01T10:01:36;7.32;;;2.22;;
77109;SDS011;66062;52.464;16.922;2023-05-01T10:04:03;4.97;;;2.28;;
77109;SDS011;66062;52.464;16.922;2023-05-01T10:06:28;6.22;;;2.45;;
77109;SDS011;66062;52.464;16.922;2023-05-01T10:08:54;6.78;;;2.50;;
77109;SDS011;66062;52.464;16.922;2023-05-01T10:11:19;9.00;;;3.17;;
77109;SDS011;66062;52.464;16.922;2023-05-01T10:14:03;6.47;;;3.22;;
77109;SDS011;66062;52.464;16.922;2023-05-01T10:16:32;6.22;;;2.05;;
77109;SDS011;66062;52.464;16.922;2023-05-01T10:18:59;7.97;;;2.10;;
77109;SDS011;66062;52.464;16.922;2023-05-01T10:21:24;5.75;;;2.25;;
77109;SDS011;66062;52.464;16.922;2023-05-01T10:23:50;9.68;;;2.90;;
77109;SDS011;66062;52.464;16.922;2023-05-01T10:26:17;7.93;;;3.00;;
77109;SDS011;66062;52.464;16.922;2023-05-01T10:28:43;10.45;;;2.97;;
77109;SDS011;66062;52.464;16.922;2023-05-01T10:31:10;11.75;;;2.90;;
77109;SDS011;66062;52.464;16.922;2023-05-01T10:33:37;8.20;;;2.83;;
77109;SDS011;66062;52.464;16.922;2023-05-01T10:36:04;7.32;;;2.33;;
77109;SDS011;66062;52.464;16.922;2023-05-01T10:38:33;5.93;;;2.42;;
77109;SDS011;66062;52.464;16.922;2023-05-01T10:41:02;6.28;;;2.78;;
77109;SDS011;66062;52.464;16.922;2023-05-01T10:43:28;7.85;;;2.67;;
77109;SDS011;66062;52.464;16.922;2023-05-01T10:51:14;5.72;;;2.72;;
77109;SDS011;66062;52.464;16.922;2023-05-01T10:53:42;8.05;;;2.90;;
77109;SDS011;66062;52.464;16.922;2023-05-01T11:01:29;8.70;;;2.42;;
77109;SDS011;66062;52.464;16.922;2023-05-01T11:03:57;8.25;;;2.53;;
77109;SDS011;66062;52.464;16.922;2023-05-01T11:06:24;7.63;;;3.05;;
77109;SDS011;66062;52.464;16.922;2023-05-01T11:08:50;8.50;;;3.53;;
77109;SDS011;66062;52.464;16.922;2023-05-01T11:13:58;7.28;;;3.08;;
77109;SDS011;66062;52.464;16.922;2023-05-01T11:19:05;7.05;;;2.90;;
77109;SDS011;66062;52.464;16.922;2023-05-01T11:21:32;9.80;;;2.90;;
77109;SDS011;66062;52.464;16.922;2023-05-01T11:24:01;5.68;;;2.35;;
77109;SDS011;66062;52.464;16.922;2023-05-01T11:26:28;6.75;;;2.20;;
77109;SDS011;66062;52.464;16.922;2023-05-01T11:28:54;4.53;;;2.05;;
77109;SDS011;66062;52.464;16.922;2023-05-01T11:31:23;4.85;;;1.90;;
77109;SDS011;66062;52.464;16.922;2023-05-01T11:33:49;6.10;;;2.25;;
77109;SDS011;66062;52.464;16.922;2023-05-01T11:36:15;10.13;;;3.47;;
77109;SDS011;66062;52.464;16.922;2023-05-01T11:38:50;7.85;;;2.28;;
77109;SDS011;66062;52.464;16.922;2023-05-01T11:41:19;6.15;;;2.03;;
77109;SDS011;66062;52.464;16.922;2023-05-01T11:43:57;7.72;;;2.28;;
77109;SDS011;66062;52.464;16.922;2023-05-01T11:48:51;4.38;;;2.13;;
77109;SDS011;66062;52.464;16.922;2023-05-01T11:51:17;7.43;;;2.53;;
77109;SDS011;66062;52.464;16.922;2023-05-01T11:53:56;6.50;;;2.10;;
77109;SDS011;66062;52.464;16.922;2023-05-01T11:56:25;7.88;;;2.42;;
77109;SDS011;66062;52.464;16.922;2023-05-01T11:58:51;7.47;;;1.98;;
77109;SDS011;66062;52.464;16.922;2023-05-01T12:01:18;5.78;;;2.20;;
77109;SDS011;66062;52.464;16.922;2023-05-01T12:03:43;5.60;;;2.22;;
77109;SDS011;66062;52.464;16.922;2023-05-01T12:06:09;5.25;;;2.13;;
77109;SDS011;66062;52.464;16.922;2023-05-01T12:08:40;6.47;;;2.75;;
77109;SDS011;66062;52.464;16.922;2023-05-01T12:11:11;7.65;;;3.10;;
77109;SDS011;66062;52.464;16.922;2023-05-01T12:13:37;8.45;;;3.85;;
77109;SDS011;66062;52.464;16.922;2023-05-01T12:16:04;6.78;;;2.15;;
77109;SDS011;66062;52.464;16.922;2023-05-01T12:18:30;7.80;;;2.85;;
77109;SDS011;66062;52.464;16.922;2023-05-01T12:20:56;6.50;;;2.42;;
77109;SDS011;66062;52.464;16.922;2023-05-01T12:23:32;10.38;;;2.67;;
77109;SDS011;66062;52.464;16.922;2023-05-01T12:25:59;5.90;;;2.30;;
77109;SDS011;66062;52.464;16.922;2023-05-01T12:28:27;7.25;;;2.50;;
77109;SDS011;66062;52.464;16.922;2023-05-01T12:30:52;5.88;;;2.85;;
77109;SDS011;66062;52.464;16.922;2023-05-01T12:33:25;10.35;;;2.50;;
77109;SDS011;66062;52.464;16.922;2023-05-01T12:35:50;8.30;;;2.83;;
77109;SDS011;66062;52.464;16.922;2023-05-01T12:38:17;7.28;;;2.63;;
77109;SDS011;66062;52.464;16.922;2023-05-01T12:40:53;6.85;;;2.63;;
77109;SDS011;66062;52.464;16.922;2023-05-01T12:43:21;8.52;;;2.38;;
77109;SDS011;66062;52.464;16.922;2023-05-01T12:45:53;5.63;;;2.30;;
77109;SDS011;66062;52.464;16.922;2023-05-01T12:48:19;5.30;;;2.15;;
77109;SDS011;66062;52.464;16.922;2023-05-01T12:50:44;8.30;;;3.40;;
77109;SDS011;66062;52.464;16.922;2023-05-01T12:53:10;8.23;;;2.30;;
77109;SDS011;66062;52.464;16.922;2023-05-01T12:55:45;7.05;;;2.60;;
77109;SDS011;66062;52.464;16.922;2023-05-01T12:58:12;8.00;;;2.65;;
77109;SDS011;66062;52.464;16.922;2023-05-01T13:03:23;6.50;;;2.50;;
77109;SDS011;66062;52.464;16.922;2023-05-01T13:05:54;6.03;;;2.65;;
77109;SDS011;66062;52.464;16.922;2023-05-01T13:08:23;8.23;;;2.55;;
77109;SDS011;66062;52.464;16.922;2023-05-01T13:11:02;7.35;;;3.25;;
77109;SDS011;66062;52.464;16.922;2023-05-01T13:13:37;7.07;;;2.45;;
77109;SDS011;66062;52.464;16.922;2023-05-01T13:16:07;5.97;;;2.55;;
77109;SDS011;66062;52.464;16.922;2023-05-01T13:21:13;5.47;;;2.42;;
77109;SDS011;66062;52.464;16.922;2023-05-01T13:23:40;5.93;;;2.38;;
77109;SDS011;66062;52.464;16.922;2023-05-01T13:26:07;6.40;;;2.53;;
77109;SDS011;66062;52.464;16.922;2023-05-01T13:28:34;6.45;;;3.10;;
77109;SDS011;66062;52.464;16.922;2023-05-01T13:31:12;5.47;;;2.30;;
77109;SDS011;66062;52.464;16.922;2023-05-01T13:33:41;6.72;;;2.92;;
77109;SDS011;66062;52.464;16.922;2023-05-01T13:36:08;6.82;;;2.50;;
77109;SDS011;66062;52.464;16.922;2023-05-01T13:38:39;5.35;;;2.20;;
77109;SDS011;66062;52.464;16.922;2023-05-01T13:41:13;7.25;;;2.75;;
77109;SDS011;66062;52.464;16.922;2023-05-01T13:43:40;8.27;;;2.53;;
77109;SDS011;66062;52.464;16.922;2023-05-01T13:46:07;6.88;;;2.13;;
77109;SDS011;66062;52.464;16.922;2023-05-01T13:48:35;6.10;;;2.05;;
77109;SDS011;66062;52.464;16.922;2023-05-01T13:51:00;9.75;;;2.22;;
77109;SDS011;66062;52.464;16.922;2023-05-01T13:53:26;12.32;;;2.80;;
77109;SDS011;66062;52.464;16.922;2023-05-01T13:55:52;6.03;;;2.17;;
77109;SDS011;66062;52.464;16.922;2023-05-01T13:58:17;5.88;;;2.40;;
77109;SDS011;66062;52.464;16.922;2023-05-01T14:00:43;5.80;;;2.15;;
77109;SDS011;66062;52.464;16.922;2023-05-01T14:03:09;5.97;;;2.80;;
77109;SDS011;66062;52.464;16.922;2023-05-01T14:05:35;7.07;;;3.05;;
77109;SDS011;66062;52.464;16.922;2023-05-01T14:08:03;9.43;;;3.05;;
77109;SDS011;66062;52.464;16.922;2023-05-01T14:10:30;4.30;;;2.00;;
77109;SDS011;66062;52.464;16.922;2023-05-01T14:12:59;7.13;;;3.13;;
77109;SDS011;66062;52.464;16.922;2023-05-01T14:15:25;9.38;;;2.42;;
77109;SDS011;66062;52.464;16.922;2023-05-01T14:17:51;8.63;;;2.60;;
77109;SDS011;66062;52.464;16.922;2023-05-01T14:20:17;10.25;;;2.20;;
77109;SDS011;66062;52.464;16.922;2023-05-01T14:22:43;6.78;;;2.55;;
77109;SDS011;66062;52.464;16.922;2023-05-01T14:27:53;4.38;;;1.95;;
77109;SDS011;66062;52.464;16.922;2023-05-01T14:30:29;6.68;;;2.45;;
77109;SDS011;66062;52.464;16.922;2023-05-01T14:33:02;6.95;;;2.40;;
77109;SDS011;66062;52.464;16.922;2023-05-01T14:35:32;8.95;;;2.33;;
77109;SDS011;66062;52.464;16.922;2023-05-01T14:40:30;6.95;;;2.20;;
77109;SDS011;66062;52.464;16.922;2023-05-01T14:42:57;4.82;;;2.28;;
77109;SDS011;66062;52.464;16.922;2023-05-01T14:45:23;8.52;;;2.50;;
77109;SDS011;66062;52.464;16.922;2023-05-01T14:47:48;9.25;;;2.15;;
77109;SDS011;66062;52.464;16.922;2023-05-01T14:50:18;5.80;;;2.50;;
77109;SDS011;66062;52.464;16.922;2023-05-01T14:52:45;5.38;;;2.33;;
77109;SDS011;66062;52.464;16.922;2023-05-01T14:55:11;6.32;;;2.40;;
77109;SDS011;66062;52.464;16.922;2023-05-01T14:57:39;6.65;;;2.40;;
77109;SDS011;66062;52.464;16.922;2023-05-01T15:00:05;4.30;;;2.40;;
77109;SDS011;66062;52.464;16.922;2023-05-01T15:02:32;4.07;;;2.10;;
77109;SDS011;66062;52.464;16.922;2023-05-01T15:04:57;5.20;;;1.98;;
77109;SDS011;66062;52.464;16.922;2023-05-01T15:07:23;6.32;;;2.10;;
77109;SDS011;66062;52.464;16.922;2023-05-01T15:09:48;5.00;;;2.00;;
77109;SDS011;66062;52.464;16.922;2023-05-01T15:12:14;6.97;;;2.33;;
77109;SDS011;66062;52.464;16.922;2023-05-01T15:14:40;5.95;;;2.00;;
77109;SDS011;66062;52.464;16.922;2023-05-01T15:17:05;4.72;;;2.00;;
77109;SDS011;66062;52.464;16.922;2023-05-01T15:19:31;7.55;;;1.92;;
77109;SDS011;66062;52.464;16.922;2023-05-01T15:21:56;6.13;;;1.80;;
77109;SDS011;66062;52.464;16.922;2023-05-01T15:24:22;5.70;;;1.98;;